sensor_id;sensor_type;location;lat;lon;timestamp;P1;durP1;ratioP1;P2;durP2;ratioP2
4001;SDS011;2015;48.670;9.060;2022-12-29T00:00:16;6.00;;;3.67;;
4001;SDS011;2015;48.670;9.060;2022-12-29T00:02:48;3.90;;;3.70;;
4001;SDS011;2015;48.670;9.060;2022-12-29T00:05:20;5.63;;;3.43;;
4001;SDS011;2015;48.670;9.060;2022-12-29T00:07:52;3.73;;;3.53;;
4001;SDS011;2015;48.670;9.060;2022-12-29T00:10:23;3.00;;;2.70;;
4001;SDS011;2015;48.670;9.060;2022-12-29T00:12:55;3.30;;;3.10;;
4001;SDS011;2015;48.670;9.060;2022-12-29T00:15:46;3.63;;;3.40;;
4001;SDS011;2015;48.670;9.060;2022-12-29T00:18:17;2.90;;;2.70;;
4001;SDS011;2015;48.670;9.060;2022-12-29T00:20:49;3.17;;;2.97;;
4001;SDS011;2015;48.670;9.060;2022-12-29T00:23:44;3.40;;;3.10;;
4001;SDS011;2015;48.670;9.060;2022-12-29T00:26:34;3.10;;;2.90;;
4001;SDS011;2015;48.670;9.060;2022-12-29T00:29:25;3.30;;;2.70;;
4001;SDS011;2015;48.670;9.060;2022-12-29T00:32:15;3.50;;;3.30;;
4001;SDS011;2015;48.670;9.060;2022-12-29T00:35:08;3.23;;;3.03;;
4001;SDS011;2015;48.670;9.060;2022-12-29T00:37:43;3.10;;;2.80;;
4001;SDS011;2015;48.670;9.060;2022-12-29T00:40:35;13.93;;;3.87;;
4001;SDS011;2015;48.670;9.060;2022-12-29T00:43:26;3.20;;;3.00;;
4001;SDS011;2015;48.670;9.060;2022-12-29T00:46:17;3.50;;;3.20;;
4001;SDS011;2015;48.670;9.060;2022-12-29T00:48:50;6.77;;;3.27;;
4001;SDS011;2015;48.670;9.060;2022-12-29T00:51:40;5.60;;;3.30;;
4001;SDS011;2015;48.670;9.060;2022-12-29T00:54:13;4.03;;;2.80;;
4001;SDS011;2015;48.670;9.060;2022-12-29T00:56:46;3.00;;;2.83;;
4001;SDS011;2015;48.670;9.060;2022-12-29T00:59:19;3.77;;;2.90;;
4001;SDS011;2015;48.670;9.060;2022-12-29T01:01:51;2.87;;;2.67;;
4001;SDS011;2015;48.670;9.060;2022-12-29T01:04:25;2.60;;;2.10;;
4001;SDS011;2015;48.670;9.060;2022-12-29T01:06:57;3.27;;;3.07;;
4001;SDS011;2015;48.670;9.060;2022-12-29T01:09:29;4.53;;;2.90;;
4001;SDS011;2015;48.670;9.060;2022-12-29T01:12:21;5.87;;;3.13;;
4001;SDS011;2015;48.670;9.060;2022-12-29T01:15:12;3.43;;;2.80;;
4001;SDS011;2015;48.670;9.060;2022-12-29T01:17:46;10.70;;;3.17;;
4001;SDS011;2015;48.670;9.060;2022-12-29T01:20:18;2.73;;;2.63;;
4001;SDS011;2015;48.670;9.060;2022-12-29T01:22:50;3.13;;;2.90;;
4001;SDS011;2015;48.670;9.060;2022-12-29T01:25:21;3.23;;;3.03;;
4001;SDS011;2015;48.670;9.060;2022-12-29T01:27:53;3.73;;;2.40;;
4001;SDS011;2015;48.670;9.060;2022-12-29T01:30:25;3.00;;;2.80;;
4001;SDS011;2015;48.670;9.060;2022-12-29T01:32:56;3.17;;;2.97;;
4001;SDS011;2015;48.670;9.060;2022-12-29T01:35:28;3.20;;;3.00;;
4001;SDS011;2015;48.670;9.060;2022-12-29T01:38:00;3.50;;;3.20;;
4001;SDS011;2015;48.670;9.060;2022-12-29T01:40:32;2.90;;;2.70;;
4001;SDS011;2015;48.670;9.060;2022-12-29T01:43:04;3.40;;;3.20;;
4001;SDS011;2015;48.670;9.060;2022-12-29T01:45:44;4.23;;;3.20;;
4001;SDS011;2015;48.670;9.060;2022-12-29T01:48:21;2.80;;;2.60;;
4001;SDS011;2015;48.670;9.060;2022-12-29T01:50:53;3.27;;;2.57;;
4001;SDS011;2015;48.670;9.060;2022-12-29T01:53:26;3.07;;;2.87;;
4001;SDS011;2015;48.670;9.060;2022-12-29T01:56:03;3.90;;;2.87;;
4001;SDS011;2015;48.670;9.060;2022-12-29T01:58:40;6.10;;;3.50;;
4001;SDS011;2015;48.670;9.060;2022-12-29T02:01:15;2.73;;;2.53;;
4001;SDS011;2015;48.670;9.060;2022-12-29T02:03:50;3.47;;;2.93;;
4001;SDS011;2015;48.670;9.060;2022-12-29T02:06:30;3.00;;;2.80;;
4001;SDS011;2015;48.670;9.060;2022-12-29T02:09:06;4.27;;;1.97;;
4001;SDS011;2015;48.670;9.060;2022-12-29T02:11:38;6.57;;;3.30;;
4001;SDS011;2015;48.670;9.060;2022-12-29T02:14:10;3.20;;;3.00;;
4001;SDS011;2015;48.670;9.060;2022-12-29T02:17:03;5.93;;;3.27;;
4001;SDS011;2015;48.670;9.060;2022-12-29T02:25:23;3.40;;;3.10;;
4001;SDS011;2015;48.670;9.060;2022-12-29T02:45:11;2.40;;;2.20;;
4001;SDS011;2015;48.670;9.060;2022-12-29T02:48:12;3.23;;;3.03;;
4001;SDS011;2015;48.670;9.060;2022-12-29T02:50:51;2.60;;;2.40;;
4001;SDS011;2015;48.670;9.060;2022-12-29T02:53:33;2.90;;;2.00;;
4001;SDS011;2015;48.670;9.060;2022-12-29T02:56:25;2.30;;;2.10;;
4001;SDS011;2015;48.670;9.060;2022-12-29T02:58:57;2.97;;;2.70;;
4001;SDS011;2015;48.670;9.060;2022-12-29T03:12:36;2.70;;;2.50;;
4001;SDS011;2015;48.670;9.060;2022-12-29T03:15:48;2.07;;;1.97;;
4001;SDS011;2015;48.670;9.060;2022-12-29T03:24:50;2.80;;;2.60;;
4001;SDS011;2015;48.670;9.060;2022-12-29T03:27:31;2.90;;;1.90;;
4001;SDS011;2015;48.670;9.060;2022-12-29T03:30:07;2.10;;;1.90;;
4001;SDS011;2015;48.670;9.060;2022-12-29T03:32:59;2.13;;;1.90;;
4001;SDS011;2015;48.670;9.060;2022-12-29T03:35:39;2.63;;;2.23;;
4001;SDS011;2015;48.670;9.060;2022-12-29T03:38:25;4.20;;;2.13;;
4001;SDS011;2015;48.670;9.060;2022-12-29T03:41:04;3.67;;;1.73;;
4001;SDS011;2015;48.670;9.060;2022-12-29T03:43:39;2.47;;;2.27;;
4001;SDS011;2015;48.670;9.060;2022-12-29T03:46:11;4.00;;;2.40;;
4001;SDS011;2015;48.670;9.060;2022-12-29T03:48:43;2.10;;;2.00;;
4001;SDS011;2015;48.670;9.060;2022-12-29T03:51:15;3.47;;;2.13;;
4001;SDS011;2015;48.670;9.060;2022-12-29T03:53:48;2.23;;;2.13;;
4001;SDS011;2015;48.670;9.060;2022-12-29T03:56:20;2.47;;;2.00;;
4001;SDS011;2015;48.670;9.060;2022-12-29T03:58:52;3.60;;;2.40;;
4001;SDS011;2015;48.670;9.060;2022-12-29T04:01:24;2.40;;;1.93;;
4001;SDS011;2015;48.670;9.060;2022-12-29T04:03:56;2.60;;;2.40;;
4001;SDS011;2015;48.670;9.060;2022-12-29T04:06:28;3.17;;;2.97;;
4001;SDS011;2015;48.670;9.060;2022-12-29T04:08:59;3.40;;;2.43;;
4001;SDS011;2015;48.670;9.060;2022-12-29T04:11:31;2.63;;;2.43;;
4001;SDS011;2015;48.670;9.060;2022-12-29T04:14:04;3.23;;;2.50;;
4001;SDS011;2015;48.670;9.060;2022-12-29T04:16:37;2.43;;;2.30;;
4001;SDS011;2015;48.670;9.060;2022-12-29T04:19:11;3.83;;;3.63;;
4001;SDS011;2015;48.670;9.060;2022-12-29T04:21:43;2.40;;;2.20;;
4001;SDS011;2015;48.670;9.060;2022-12-29T04:24:15;2.40;;;2.20;;
4001;SDS011;2015;48.670;9.060;2022-12-29T04:26:48;3.70;;;2.53;;
4001;SDS011;2015;48.670;9.060;2022-12-29T04:29:20;2.50;;;2.30;;
4001;SDS011;2015;48.670;9.060;2022-12-29T04:31:52;2.93;;;2.57;;
4001;SDS011;2015;48.670;9.060;2022-12-29T04:34:24;3.83;;;2.30;;
4001;SDS011;2015;48.670;9.060;2022-12-29T04:36:56;3.37;;;3.17;;
4001;SDS011;2015;48.670;9.060;2022-12-29T04:39:27;2.70;;;2.50;;
4001;SDS011;2015;48.670;9.060;2022-12-29T04:41:59;3.00;;;2.47;;
4001;SDS011;2015;48.670;9.060;2022-12-29T04:44:31;3.80;;;3.50;;
4001;SDS011;2015;48.670;9.060;2022-12-29T04:47:03;2.80;;;2.60;;
4001;SDS011;2015;48.670;9.060;2022-12-29T04:49:35;2.93;;;2.73;;
4001;SDS011;2015;48.670;9.060;2022-12-29T04:52:06;1.97;;;1.87;;
4001;SDS011;2015;48.670;9.060;2022-12-29T04:54:39;2.83;;;2.73;;
4001;SDS011;2015;48.670;9.060;2022-12-29T04:57:11;2.60;;;2.23;;
4001;SDS011;2015;48.670;9.060;2022-12-29T04:59:43;2.17;;;2.07;;
4001;SDS011;2015;48.670;9.060;2022-12-29T05:02:15;2.97;;;2.57;;
4001;SDS011;2015;48.670;9.060;2022-12-29T05:04:48;2.57;;;2.40;;
4001;SDS011;2015;48.670;9.060;2022-12-29T05:07:20;3.10;;;2.80;;
4001;SDS011;2015;48.670;9.060;2022-12-29T05:09:52;2.97;;;2.60;;
4001;SDS011;2015;48.670;9.060;2022-12-29T05:12:24;2.30;;;2.20;;
4001;SDS011;2015;48.670;9.060;2022-12-29T05:14:56;3.30;;;2.40;;
4001;SDS011;2015;48.670;9.060;2022-12-29T05:17:28;8.90;;;2.73;;
4001;SDS011;2015;48.670;9.060;2022-12-29T05:20:00;2.80;;;2.60;;
4001;SDS011;2015;48.670;9.060;2022-12-29T05:22:32;2.60;;;2.30;;
4001;SDS011;2015;48.670;9.060;2022-12-29T05:25:04;3.30;;;2.40;;
4001;SDS011;2015;48.670;9.060;2022-12-29T05:27:36;3.43;;;2.63;;
4001;SDS011;2015;48.670;9.060;2022-12-29T05:30:08;2.97;;;2.63;;
4001;SDS011;2015;48.670;9.060;2022-12-29T05:32:40;2.90;;;2.70;;
4001;SDS011;2015;48.670;9.060;2022-12-29T05:35:12;2.70;;;2.50;;
4001;SDS011;2015;48.670;9.060;2022-12-29T05:37:44;2.00;;;1.90;;
4001;SDS011;2015;48.670;9.060;2022-12-29T05:40:16;2.67;;;2.47;;
4001;SDS011;2015;48.670;9.060;2022-12-29T05:42:48;3.70;;;3.53;;
4001;SDS011;2015;48.670;9.060;2022-12-29T05:45:20;2.70;;;2.57;;
4001;SDS011;2015;48.670;9.060;2022-12-29T05:47:52;2.30;;;2.10;;
4001;SDS011;2015;48.670;9.060;2022-12-29T05:50:23;2.30;;;2.20;;
4001;SDS011;2015;48.670;9.060;2022-12-29T05:52:55;4.60;;;2.70;;
4001;SDS011;2015;48.670;9.060;2022-12-29T05:55:27;2.27;;;2.17;;
4001;SDS011;2015;48.670;9.060;2022-12-29T05:57:59;2.40;;;2.30;;
4001;SDS011;2015;48.670;9.060;2022-12-29T06:00:30;3.00;;;2.50;;
4001;SDS011;2015;48.670;9.060;2022-12-29T06:03:03;5.20;;;2.57;;
4001;SDS011;2015;48.670;9.060;2022-12-29T06:05:35;2.27;;;2.07;;
4001;SDS011;2015;48.670;9.060;2022-12-29T06:08:07;5.17;;;2.80;;
4001;SDS011;2015;48.670;9.060;2022-12-29T06:10:39;2.77;;;2.57;;
4001;SDS011;2015;48.670;9.060;2022-12-29T06:13:11;3.10;;;2.87;;
4001;SDS011;2015;48.670;9.060;2022-12-29T06:15:43;2.90;;;2.70;;
4001;SDS011;2015;48.670;9.060;2022-12-29T06:18:15;3.03;;;2.83;;
4001;SDS011;2015;48.670;9.060;2022-12-29T06:20:50;3.77;;;3.50;;
4001;SDS011;2015;48.670;9.060;2022-12-29T06:23:22;3.17;;;2.97;;
4001;SDS011;2015;48.670;9.060;2022-12-29T06:25:54;2.40;;;2.30;;
4001;SDS011;2015;48.670;9.060;2022-12-29T06:28:26;2.93;;;2.73;;
4001;SDS011;2015;48.670;9.060;2022-12-29T06:30:57;4.63;;;2.33;;
4001;SDS011;2015;48.670;9.060;2022-12-29T06:33:29;2.90;;;2.70;;
4001;SDS011;2015;48.670;9.060;2022-12-29T06:36:01;2.80;;;2.20;;
4001;SDS011;2015;48.670;9.060;2022-12-29T06:38:33;3.90;;;2.20;;
4001;SDS011;2015;48.670;9.060;2022-12-29T06:41:06;2.53;;;2.43;;
4001;SDS011;2015;48.670;9.060;2022-12-29T06:43:38;2.97;;;2.77;;
4001;SDS011;2015;48.670;9.060;2022-12-29T06:46:09;2.63;;;2.53;;
4001;SDS011;2015;48.670;9.060;2022-12-29T06:48:41;5.47;;;2.50;;
4001;SDS011;2015;48.670;9.060;2022-12-29T06:51:13;3.20;;;2.40;;
4001;SDS011;2015;48.670;9.060;2022-12-29T06:53:45;5.50;;;2.77;;
4001;SDS011;2015;48.670;9.060;2022-12-29T06:56:17;1.80;;;1.70;;
4001;SDS011;2015;48.670;9.060;2022-12-29T06:58:49;3.10;;;2.37;;
4001;SDS011;2015;48.670;9.060;2022-12-29T07:01:20;2.23;;;2.03;;
4001;SDS011;2015;48.670;9.060;2022-12-29T07:03:52;3.13;;;2.83;;
4001;SDS011;2015;48.670;9.060;2022-12-29T07:06:24;2.63;;;2.43;;
4001;SDS011;2015;48.670;9.060;2022-12-29T07:08:56;2.43;;;2.33;;
4001;SDS011;2015;48.670;9.060;2022-12-29T07:11:28;4.67;;;3.23;;
4001;SDS011;2015;48.670;9.060;2022-12-29T07:14:00;2.67;;;2.47;;
4001;SDS011;2015;48.670;9.060;2022-12-29T07:16:33;2.67;;;2.40;;
4001;SDS011;2015;48.670;9.060;2022-12-29T07:19:05;2.33;;;2.23;;
4001;SDS011;2015;48.670;9.060;2022-12-29T07:21:37;3.00;;;2.23;;
4001;SDS011;2015;48.670;9.060;2022-12-29T07:24:09;4.80;;;2.30;;
4001;SDS011;2015;48.670;9.060;2022-12-29T07:26:41;2.73;;;2.53;;
4001;SDS011;2015;48.670;9.060;2022-12-29T07:29:13;2.30;;;2.20;;
4001;SDS011;2015;48.670;9.060;2022-12-29T07:31:45;2.47;;;2.27;;
4001;SDS011;2015;48.670;9.060;2022-12-29T07:34:16;2.20;;;2.10;;
4001;SDS011;2015;48.670;9.060;2022-12-29T07:36:48;2.60;;;2.40;;
4001;SDS011;2015;48.670;9.060;2022-12-29T07:39:20;3.30;;;3.00;;
4001;SDS011;2015;48.670;9.060;2022-12-29T07:41:52;3.60;;;3.30;;
4001;SDS011;2015;48.670;9.060;2022-12-29T07:44:23;3.63;;;3.33;;
4001;SDS011;2015;48.670;9.060;2022-12-29T07:46:55;3.10;;;2.80;;
4001;SDS011;2015;48.670;9.060;2022-12-29T07:49:29;2.77;;;2.50;;
4001;SDS011;2015;48.670;9.060;2022-12-29T07:52:01;2.30;;;2.10;;
4001;SDS011;2015;48.670;9.060;2022-12-29T07:54:32;3.73;;;2.20;;
4001;SDS011;2015;48.670;9.060;2022-12-29T07:57:04;4.73;;;3.10;;
4001;SDS011;2015;48.670;9.060;2022-12-29T07:59:37;2.50;;;2.30;;
4001;SDS011;2015;48.670;9.060;2022-12-29T08:02:09;3.17;;;2.33;;
4001;SDS011;2015;48.670;9.060;2022-12-29T08:04:42;3.00;;;2.70;;
4001;SDS011;2015;48.670;9.060;2022-12-29T08:07:14;3.00;;;1.90;;
4001;SDS011;2015;48.670;9.060;2022-12-29T08:09:46;2.83;;;2.30;;
4001;SDS011;2015;48.670;9.060;2022-12-29T08:12:18;2.53;;;2.33;;
4001;SDS011;2015;48.670;9.060;2022-12-29T08:14:50;2.80;;;2.33;;
4001;SDS011;2015;48.670;9.060;2022-12-29T08:17:22;2.53;;;2.33;;
4001;SDS011;2015;48.670;9.060;2022-12-29T08:19:53;2.93;;;2.73;;
4001;SDS011;2015;48.670;9.060;2022-12-29T08:22:25;4.23;;;3.07;;
4001;SDS011;2015;48.670;9.060;2022-12-29T08:24:57;2.63;;;2.43;;
4001;SDS011;2015;48.670;9.060;2022-12-29T08:27:29;2.73;;;2.43;;
4001;SDS011;2015;48.670;9.060;2022-12-29T08:30:00;3.67;;;2.50;;
4001;SDS011;2015;48.670;9.060;2022-12-29T08:32:32;2.67;;;2.47;;
4001;SDS011;2015;48.670;9.060;2022-12-29T08:35:05;3.40;;;3.07;;
4001;SDS011;2015;48.670;9.060;2022-12-29T08:37:37;3.27;;;2.43;;
4001;SDS011;2015;48.670;9.060;2022-12-29T08:40:09;2.33;;;2.23;;
4001;SDS011;2015;48.670;9.060;2022-12-29T08:42:41;8.17;;;2.37;;
4001;SDS011;2015;48.670;9.060;2022-12-29T08:45:12;3.95;;;2.70;;
4001;SDS011;2015;48.670;9.060;2022-12-29T08:47:44;3.53;;;2.60;;
4001;SDS011;2015;48.670;9.060;2022-12-29T08:50:16;2.20;;;2.10;;
4001;SDS011;2015;48.670;9.060;2022-12-29T08:52:48;2.80;;;2.60;;
4001;SDS011;2015;48.670;9.060;2022-12-29T08:55:21;3.27;;;3.07;;
4001;SDS011;2015;48.670;9.060;2022-12-29T08:57:54;3.30;;;3.10;;
4001;SDS011;2015;48.670;9.060;2022-12-29T09:00:26;4.33;;;2.10;;
4001;SDS011;2015;48.670;9.060;2022-12-29T09:02:57;2.97;;;2.77;;
4001;SDS011;2015;48.670;9.060;2022-12-29T09:05:29;2.20;;;2.00;;
4001;SDS011;2015;48.670;9.060;2022-12-29T09:08:01;4.33;;;2.53;;
4001;SDS011;2015;48.670;9.060;2022-12-29T09:10:33;3.00;;;2.80;;
4001;SDS011;2015;48.670;9.060;2022-12-29T09:13:05;3.93;;;3.33;;
4001;SDS011;2015;48.670;9.060;2022-12-29T09:15:36;3.30;;;2.70;;
4001;SDS011;2015;48.670;9.060;2022-12-29T09:18:09;5.15;;;2.50;;
4001;SDS011;2015;48.670;9.060;2022-12-29T09:20:55;3.67;;;2.90;;
4001;SDS011;2015;48.670;9.060;2022-12-29T09:23:28;2.60;;;2.43;;
4001;SDS011;2015;48.670;9.060;2022-12-29T09:26:00;3.10;;;2.30;;
4001;SDS011;2015;48.670;9.060;2022-12-29T09:28:32;3.27;;;2.97;;
4001;SDS011;2015;48.670;9.060;2022-12-29T09:31:04;2.63;;;2.43;;
4001;SDS011;2015;48.670;9.060;2022-12-29T09:33:36;5.67;;;2.70;;
4001;SDS011;2015;48.670;9.060;2022-12-29T09:36:08;3.47;;;3.17;;
4001;SDS011;2015;48.670;9.060;2022-12-29T09:38:40;3.20;;;2.87;;
4001;SDS011;2015;48.670;9.060;2022-12-29T09:41:20;2.60;;;2.50;;
4001;SDS011;2015;48.670;9.060;2022-12-29T09:44:13;5.00;;;2.67;;
4001;SDS011;2015;48.670;9.060;2022-12-29T09:46:57;2.80;;;2.60;;
4001;SDS011;2015;48.670;9.060;2022-12-29T09:49:35;2.93;;;2.73;;
4001;SDS011;2015;48.670;9.060;2022-12-29T09:52:23;4.20;;;3.80;;
4001;SDS011;2015;48.670;9.060;2022-12-29T09:55:22;2.40;;;2.20;;
4001;SDS011;2015;48.670;9.060;2022-12-29T09:58:02;6.40;;;2.73;;
4001;SDS011;2015;48.670;9.060;2022-12-29T10:03:41;3.10;;;2.90;;
4001;SDS011;2015;48.670;9.060;2022-12-29T10:25:59;3.60;;;3.40;;
4001;SDS011;2015;48.670;9.060;2022-12-29T10:28:34;5.60;;;5.10;;
4001;SDS011;2015;48.670;9.060;2022-12-29T10:31:16;7.03;;;6.10;;
4001;SDS011;2015;48.670;9.060;2022-12-29T10:33:57;5.53;;;3.87;;
4001;SDS011;2015;48.670;9.060;2022-12-29T10:36:38;3.47;;;3.17;;
4001;SDS011;2015;48.670;9.060;2022-12-29T10:39:18;4.90;;;2.83;;
4001;SDS011;2015;48.670;9.060;2022-12-29T10:42:08;3.13;;;2.83;;
4001;SDS011;2015;48.670;9.060;2022-12-29T10:44:44;2.80;;;2.10;;
4001;SDS011;2015;48.670;9.060;2022-12-29T10:47:17;2.40;;;1.97;;
4001;SDS011;2015;48.670;9.060;2022-12-29T10:49:53;2.93;;;2.60;;
4001;SDS011;2015;48.670;9.060;2022-12-29T10:52:25;3.60;;;3.30;;
4001;SDS011;2015;48.670;9.060;2022-12-29T10:55:00;3.85;;;2.90;;
4001;SDS011;2015;48.670;9.060;2022-12-29T10:57:53;7.00;;;3.90;;
4001;SDS011;2015;48.670;9.060;2022-12-29T11:00:28;3.80;;;3.60;;
4001;SDS011;2015;48.670;9.060;2022-12-29T11:05:52;3.93;;;3.30;;
4001;SDS011;2015;48.670;9.060;2022-12-29T11:08:33;5.70;;;2.67;;
4001;SDS011;2015;48.670;9.060;2022-12-29T11:11:09;4.43;;;2.60;;
4001;SDS011;2015;48.670;9.060;2022-12-29T11:13:54;3.57;;;3.27;;
4001;SDS011;2015;48.670;9.060;2022-12-29T11:16:33;3.07;;;2.77;;
4001;SDS011;2015;48.670;9.060;2022-12-29T11:19:10;3.93;;;2.80;;
4001;SDS011;2015;48.670;9.060;2022-12-29T11:21:54;4.23;;;2.60;;
4001;SDS011;2015;48.670;9.060;2022-12-29T11:24:27;3.10;;;2.80;;
4001;SDS011;2015;48.670;9.060;2022-12-29T11:27:19;2.83;;;2.57;;
4001;SDS011;2015;48.670;9.060;2022-12-29T11:29:54;3.03;;;2.80;;
4001;SDS011;2015;48.670;9.060;2022-12-29T11:32:26;2.80;;;2.40;;
4001;SDS011;2015;48.670;9.060;2022-12-29T11:35:00;3.03;;;2.83;;
4001;SDS011;2015;48.670;9.060;2022-12-29T11:37:39;3.33;;;3.13;;
4001;SDS011;2015;48.670;9.060;2022-12-29T11:40:17;3.63;;;2.90;;
4001;SDS011;2015;48.670;9.060;2022-12-29T11:42:51;2.53;;;2.33;;
4001;SDS011;2015;48.670;9.060;2022-12-29T11:45:34;2.20;;;2.00;;
4001;SDS011;2015;48.670;9.060;2022-12-29T11:48:18;2.00;;;1.90;;
4001;SDS011;2015;48.670;9.060;2022-12-29T11:50:55;2.70;;;2.00;;
4001;SDS011;2015;48.670;9.060;2022-12-29T11:53:36;2.30;;;2.20;;
4001;SDS011;2015;48.670;9.060;2022-12-29T11:56:30;3.80;;;2.77;;
4001;SDS011;2015;48.670;9.060;2022-12-29T12:02:36;2.80;;;2.60;;
4001;SDS011;2015;48.670;9.060;2022-12-29T12:05:24;3.17;;;2.87;;
4001;SDS011;2015;48.670;9.060;2022-12-29T12:08:02;2.93;;;2.73;;
4001;SDS011;2015;48.670;9.060;2022-12-29T12:10:57;2.80;;;2.43;;
4001;SDS011;2015;48.670;9.060;2022-12-29T12:13:38;2.70;;;2.50;;
4001;SDS011;2015;48.670;9.060;2022-12-29T12:16:20;2.50;;;2.37;;
4001;SDS011;2015;48.670;9.060;2022-12-29T12:19:04;5.60;;;2.57;;
4001;SDS011;2015;48.670;9.060;2022-12-29T12:21:56;3.20;;;2.97;;
4001;SDS011;2015;48.670;9.060;2022-12-29T12:24:37;3.70;;;3.50;;
4001;SDS011;2015;48.670;9.060;2022-12-29T12:32:39;3.40;;;3.20;;
4001;SDS011;2015;48.670;9.060;2022-12-29T12:35:15;4.00;;;3.60;;
4001;SDS011;2015;48.670;9.060;2022-12-29T12:38:42;3.30;;;3.00;;
4001;SDS011;2015;48.670;9.060;2022-12-29T12:44:01;14.70;;;3.80;;
4001;SDS011;2015;48.670;9.060;2022-12-29T12:52:54;3.67;;;3.37;;
4001;SDS011;2015;48.670;9.060;2022-12-29T13:09:46;4.00;;;3.80;;
4001;SDS011;2015;48.670;9.060;2022-12-29T13:29:06;3.13;;;2.93;;
4001;SDS011;2015;48.670;9.060;2022-12-29T13:35:13;3.73;;;3.43;;
4001;SDS011;2015;48.670;9.060;2022-12-29T13:37:53;3.00;;;2.70;;
4001;SDS011;2015;48.670;9.060;2022-12-29T13:40:45;3.60;;;3.17;;
4001;SDS011;2015;48.670;9.060;2022-12-29T13:43:19;3.03;;;2.80;;
4001;SDS011;2015;48.670;9.060;2022-12-29T13:45:57;3.30;;;3.00;;
4001;SDS011;2015;48.670;9.060;2022-12-29T13:48:40;3.23;;;2.97;;
4001;SDS011;2015;48.670;9.060;2022-12-29T13:51:18;3.40;;;3.20;;
4001;SDS011;2015;48.670;9.060;2022-12-29T13:57:08;3.33;;;2.93;;
4001;SDS011;2015;48.670;9.060;2022-12-29T14:05:02;4.97;;;3.47;;
4001;SDS011;2015;48.670;9.060;2022-12-29T14:07:37;3.77;;;3.13;;
4001;SDS011;2015;48.670;9.060;2022-12-29T14:10:25;5.57;;;3.93;;
4001;SDS011;2015;48.670;9.060;2022-12-29T14:13:13;3.60;;;3.27;;
4001;SDS011;2015;48.670;9.060;2022-12-29T14:16:05;3.53;;;2.72;;
4001;SDS011;2015;48.670;9.060;2022-12-29T14:18:42;3.87;;;3.27;;
4001;SDS011;2015;48.670;9.060;2022-12-29T14:23:47;3.63;;;3.00;;
4001;SDS011;2015;48.670;9.060;2022-12-29T14:31:55;2.60;;;2.40;;
4001;SDS011;2015;48.670;9.060;2022-12-29T14:34:28;4.57;;;2.80;;
4001;SDS011;2015;48.670;9.060;2022-12-29T14:37:01;5.97;;;5.47;;
4001;SDS011;2015;48.670;9.060;2022-12-29T14:39:45;3.07;;;2.87;;
4001;SDS011;2015;48.670;9.060;2022-12-29T14:42:19;4.83;;;3.33;;
4001;SDS011;2015;48.670;9.060;2022-12-29T14:45:06;2.60;;;2.33;;
4001;SDS011;2015;48.670;9.060;2022-12-29T14:47:40;3.63;;;2.80;;
4001;SDS011;2015;48.670;9.060;2022-12-29T14:50:18;3.20;;;2.40;;
4001;SDS011;2015;48.670;9.060;2022-12-29T14:52:57;3.90;;;3.23;;
4001;SDS011;2015;48.670;9.060;2022-12-29T14:58:32;5.70;;;3.20;;
4001;SDS011;2015;48.670;9.060;2022-12-29T15:01:37;9.37;;;6.03;;
4001;SDS011;2015;48.670;9.060;2022-12-29T15:04:22;5.73;;;5.13;;
4001;SDS011;2015;48.670;9.060;2022-12-29T15:06:58;4.93;;;4.10;;
4001;SDS011;2015;48.670;9.060;2022-12-29T15:09:44;3.75;;;3.45;;
4001;SDS011;2015;48.670;9.060;2022-12-29T15:12:41;4.87;;;4.37;;
4001;SDS011;2015;48.670;9.060;2022-12-29T15:15:20;7.00;;;3.20;;
4001;SDS011;2015;48.670;9.060;2022-12-29T15:17:55;3.13;;;2.93;;
4001;SDS011;2015;48.670;9.060;2022-12-29T15:20:28;4.60;;;3.57;;
4001;SDS011;2015;48.670;9.060;2022-12-29T15:23:02;3.17;;;2.87;;
4001;SDS011;2015;48.670;9.060;2022-12-29T15:25:47;3.40;;;3.20;;
4001;SDS011;2015;48.670;9.060;2022-12-29T15:28:25;3.20;;;2.83;;
4001;SDS011;2015;48.670;9.060;2022-12-29T15:31:04;2.90;;;2.70;;
4001;SDS011;2015;48.670;9.060;2022-12-29T15:33:46;6.07;;;2.80;;
4001;SDS011;2015;48.670;9.060;2022-12-29T15:36:24;3.80;;;3.40;;
4001;SDS011;2015;48.670;9.060;2022-12-29T15:38:58;4.23;;;4.00;;
4001;SDS011;2015;48.670;9.060;2022-12-29T15:49:52;4.30;;;4.00;;
4001;SDS011;2015;48.670;9.060;2022-12-29T15:52:27;4.10;;;3.80;;
4001;SDS011;2015;48.670;9.060;2022-12-29T15:55:00;4.80;;;4.40;;
4001;SDS011;2015;48.670;9.060;2022-12-29T15:57:37;5.60;;;4.30;;
4001;SDS011;2015;48.670;9.060;2022-12-29T16:00:24;3.20;;;3.00;;
4001;SDS011;2015;48.670;9.060;2022-12-29T16:02:59;4.43;;;3.63;;
4001;SDS011;2015;48.670;9.060;2022-12-29T16:05:34;3.70;;;3.40;;
4001;SDS011;2015;48.670;9.060;2022-12-29T16:11:20;3.13;;;2.93;;
4001;SDS011;2015;48.670;9.060;2022-12-29T16:13:56;3.67;;;3.47;;
4001;SDS011;2015;48.670;9.060;2022-12-29T16:16:32;5.07;;;3.40;;
4001;SDS011;2015;48.670;9.060;2022-12-29T16:19:13;5.10;;;3.47;;
4001;SDS011;2015;48.670;9.060;2022-12-29T16:21:51;2.90;;;2.40;;
4001;SDS011;2015;48.670;9.060;2022-12-29T16:24:24;9.90;;;3.00;;
4001;SDS011;2015;48.670;9.060;2022-12-29T16:27:06;2.67;;;2.47;;
4001;SDS011;2015;48.670;9.060;2022-12-29T16:29:41;3.77;;;3.47;;
4001;SDS011;2015;48.670;9.060;2022-12-29T16:38:13;3.77;;;3.47;;
4001;SDS011;2015;48.670;9.060;2022-12-29T16:40:49;4.57;;;4.17;;
4001;SDS011;2015;48.670;9.060;2022-12-29T16:43:29;3.33;;;3.10;;
4001;SDS011;2015;48.670;9.060;2022-12-29T16:46:40;4.03;;;3.53;;
4001;SDS011;2015;48.670;9.060;2022-12-29T16:49:06;4.80;;;3.03;;
4001;SDS011;2015;48.670;9.060;2022-12-29T16:51:51;4.57;;;4.27;;
4001;SDS011;2015;48.670;9.060;2022-12-29T16:54:32;5.87;;;5.37;;
4001;SDS011;2015;48.670;9.060;2022-12-29T16:57:06;4.70;;;3.50;;
4001;SDS011;2015;48.670;9.060;2022-12-29T16:59:39;3.50;;;3.20;;
4001;SDS011;2015;48.670;9.060;2022-12-29T17:02:15;2.80;;;2.60;;
4001;SDS011;2015;48.670;9.060;2022-12-29T17:04:50;6.97;;;3.37;;
4001;SDS011;2015;48.670;9.060;2022-12-29T17:07:24;7.37;;;4.03;;
4001;SDS011;2015;48.670;9.060;2022-12-29T17:09:58;9.23;;;7.20;;
4001;SDS011;2015;48.670;9.060;2022-12-29T17:12:30;4.57;;;4.17;;
4001;SDS011;2015;48.670;9.060;2022-12-29T17:15:14;14.77;;;9.93;;
4001;SDS011;2015;48.670;9.060;2022-12-29T17:17:56;32.60;;;16.83;;
4001;SDS011;2015;48.670;9.060;2022-12-29T17:20:30;24.00;;;13.10;;
4001;SDS011;2015;48.670;9.060;2022-12-29T17:23:04;14.63;;;9.10;;
4001;SDS011;2015;48.670;9.060;2022-12-29T17:25:54;7.43;;;5.97;;
4001;SDS011;2015;48.670;9.060;2022-12-29T17:28:27;9.90;;;8.37;;
4001;SDS011;2015;48.670;9.060;2022-12-29T17:31:02;6.13;;;5.53;;
4001;SDS011;2015;48.670;9.060;2022-12-29T17:33:37;4.90;;;4.50;;
4001;SDS011;2015;48.670;9.060;2022-12-29T17:36:13;3.70;;;3.40;;
4001;SDS011;2015;48.670;9.060;2022-12-29T17:38:45;3.80;;;3.60;;
4001;SDS011;2015;48.670;9.060;2022-12-29T17:41:17;3.97;;;3.77;;
4001;SDS011;2015;48.670;9.060;2022-12-29T17:43:49;3.57;;;3.27;;
4001;SDS011;2015;48.670;9.060;2022-12-29T17:46:21;5.20;;;4.57;;
4001;SDS011;2015;48.670;9.060;2022-12-29T17:48:53;3.30;;;3.10;;
4001;SDS011;2015;48.670;9.060;2022-12-29T17:51:25;6.23;;;4.60;;
4001;SDS011;2015;48.670;9.060;2022-12-29T17:53:57;4.13;;;3.93;;
4001;SDS011;2015;48.670;9.060;2022-12-29T17:56:29;3.30;;;3.10;;
4001;SDS011;2015;48.670;9.060;2022-12-29T17:59:01;3.73;;;3.50;;
4001;SDS011;2015;48.670;9.060;2022-12-29T18:01:32;4.87;;;4.57;;
4001;SDS011;2015;48.670;9.060;2022-12-29T18:04:14;4.53;;;4.23;;
4001;SDS011;2015;48.670;9.060;2022-12-29T18:06:47;4.43;;;4.17;;
4001;SDS011;2015;48.670;9.060;2022-12-29T18:09:19;5.30;;;4.80;;
4001;SDS011;2015;48.670;9.060;2022-12-29T18:11:52;6.13;;;4.40;;
4001;SDS011;2015;48.670;9.060;2022-12-29T18:14:24;4.43;;;4.13;;
4001;SDS011;2015;48.670;9.060;2022-12-29T18:16:56;7.43;;;4.00;;
4001;SDS011;2015;48.670;9.060;2022-12-29T18:19:28;4.40;;;4.00;;
4001;SDS011;2015;48.670;9.060;2022-12-29T18:22:07;4.40;;;3.53;;
4001;SDS011;2015;48.670;9.060;2022-12-29T18:24:39;3.53;;;3.27;;
4001;SDS011;2015;48.670;9.060;2022-12-29T18:27:11;5.90;;;2.97;;
4001;SDS011;2015;48.670;9.060;2022-12-29T18:29:45;6.63;;;4.27;;
4001;SDS011;2015;48.670;9.060;2022-12-29T18:32:17;3.40;;;3.10;;
4001;SDS011;2015;48.670;9.060;2022-12-29T18:34:49;3.70;;;3.37;;
4001;SDS011;2015;48.670;9.060;2022-12-29T18:37:21;14.97;;;9.63;;
4001;SDS011;2015;48.670;9.060;2022-12-29T18:39:52;8.57;;;7.77;;
4001;SDS011;2015;48.670;9.060;2022-12-29T18:42:24;6.60;;;6.00;;
4001;SDS011;2015;48.670;9.060;2022-12-29T18:44:56;5.27;;;4.87;;